createdAt,value
2023-02-02T00:04:34.928Z,99164.40
2023-02-02T00:09:35.916Z,99162.80
2023-02-02T00:14:35.712Z,99156.00
2023-02-02T00:19:35.711Z,99153.60
2023-02-02T00:24:36.379Z,99146.60
2023-02-02T00:29:36.781Z,99143.80
2023-02-02T00:34:35.877Z,99140.00
2023-02-02T00:39:37.791Z,99139.60
2023-02-02T00:45:06.186Z,99135.20
2023-02-02T00:50:06.421Z,99137.80
2023-02-02T00:55:05.917Z,99149.80
2023-02-02T01:00:07.168Z,99137.80
2023-02-02T01:05:06.780Z,99140.60
2023-02-02T01:10:08.785Z,99149.40
2023-02-02T01:15:10.203Z,99143.40
2023-02-02T01:20:17.155Z,99140.80
2023-02-02T01:25:16.895Z,99149.00
2023-02-02T01:30:18.625Z,99140.80
2023-02-02T01:35:17.689Z,99134.80
2023-02-02T01:40:20.728Z,99139.00
2023-02-02T01:45:29.570Z,99132.80
2023-02-02T01:50:35.506Z,99126.40
2023-02-02T01:55:40.293Z,99129.60
2023-02-02T02:00:45.086Z,99134.40
2023-02-02T02:05:52.024Z,99135.00
2023-02-02T02:10:52.790Z,99140.40
2023-02-02T02:16:18.295Z,99146.20
2023-02-02T02:22:11.287Z,99136.20
2023-02-02T02:27:46.134Z,99140.20
2023-02-02T02:32:54.233Z,99133.60
2023-02-02T02:38:06.184Z,99134.80
2023-02-02T02:43:14.916Z,99134.60
2023-02-02T02:48:16.205Z,99142.40
2023-02-02T02:53:20.247Z,99136.80
2023-02-02T02:58:26.403Z,99146.40
2023-02-02T03:03:48.354Z,99144.40
2023-02-02T03:08:59.702Z,99154.40
2023-02-02T03:13:59.951Z,99151.60
2023-02-02T03:19:00.087Z,99149.20
2023-02-02T03:24:00.191Z,99150.40
2023-02-02T03:29:02.130Z,99149.20
2023-02-02T03:34:01.329Z,99151.80
2023-02-02T03:39:00.568Z,99143.00
2023-02-02T03:44:00.042Z,99143.20
2023-02-02T03:48:59.446Z,99153.00
2023-02-02T03:53:58.926Z,99144.40
2023-02-02T03:58:58.255Z,99147.80
2023-02-02T04:03:57.903Z,99149.80
2023-02-02T04:08:57.623Z,99149.40
2023-02-02T04:13:57.317Z,99143.80
2023-02-02T04:18:56.676Z,99143.60
2023-02-02T04:23:56.036Z,99145.40
2023-02-02T04:28:55.657Z,99140.80
2023-02-02T04:33:55.309Z,99144.40
2023-02-02T04:38:56.556Z,99149.00
2023-02-02T04:43:55.933Z,99153.80
2023-02-02T04:48:55.288Z,99154.40
2023-02-02T04:53:55.261Z,99150.20
2023-02-02T04:58:57.048Z,99148.80
2023-02-02T05:03:56.685Z,99151.20
2023-02-02T05:08:56.258Z,99153.40
2023-02-02T05:13:56.980Z,99151.40
2023-02-02T05:18:59.598Z,99153.00
2023-02-02T05:23:59.964Z,99154.20
2023-02-02T05:28:59.721Z,99154.00
2023-02-02T05:33:58.863Z,99153.40
2023-02-02T05:38:58.233Z,99154.40
2023-02-02T05:44:00.319Z,99155.00
2023-02-02T05:49:00.349Z,99150.60
2023-02-02T05:54:01.122Z,99158.80
2023-02-02T05:59:00.735Z,99170.00
2023-02-02T06:04:00.518Z,99168.60
2023-02-02T06:09:01.349Z,99161.80
2023-02-02T06:14:00.470Z,99164.60
2023-02-02T06:19:00.111Z,99161.80
2023-02-02T06:24:02.291Z,99166.60
2023-02-02T06:29:02.595Z,99161.60
2023-02-02T06:34:03.084Z,99170.00
2023-02-02T06:39:04.950Z,99170.40
2023-02-02T06:44:04.970Z,99162.40
2023-02-02T06:49:04.446Z,99159.40
2023-02-02T06:54:04.522Z,99153.20
2023-02-02T06:59:04.258Z,99157.60
2023-02-02T07:04:03.692Z,99159.40
2023-02-02T07:09:03.600Z,99150.80
2023-02-02T07:14:04.239Z,99152.60
2023-02-02T07:19:03.745Z,99152.40
2023-02-02T07:24:02.922Z,99154.80
2023-02-02T07:29:03.081Z,99151.00
2023-02-02T07:34:02.621Z,99155.60
2023-02-02T07:39:05.161Z,99154.20
2023-02-02T07:44:05.166Z,99157.60
2023-02-02T07:49:03.883Z,99154.60
2023-02-02T07:54:03.601Z,99153.80
2023-02-02T07:59:04.362Z,99162.20
2023-02-02T08:04:04.861Z,99159.80
2023-02-02T08:09:07.777Z,99165.40
2023-02-02T08:14:08.149Z,99167.40
2023-02-02T08:19:06.911Z,99172.20
2023-02-02T08:24:07.969Z,99173.20
2023-02-02T08:29:10.397Z,99175.80
2023-02-02T08:34:09.963Z,99176.00
2023-02-02T08:39:12.454Z,99178.40
2023-02-02T08:44:18.178Z,99179.00
2023-02-02T08:49:19.544Z,99184.40
2023-02-02T08:54:18.882Z,99183.00
2023-02-02T08:59:17.937Z,99191.80
2023-02-02T09:04:19.097Z,99192.20
2023-02-02T09:09:20.277Z,99191.40
2023-02-02T09:14:19.494Z,99197.00
2023-02-02T09:19:18.565Z,99200.60
2023-02-02T09:24:18.826Z,99201.80
2023-02-02T09:29:19.983Z,99205.40
2023-02-02T09:34:20.014Z,99215.40
2023-02-02T09:39:19.728Z,99224.00
2023-02-02T09:44:35.123Z,99227.00
2023-02-02T09:49:45.018Z,99237.00
2023-02-02T09:54:52.355Z,99245.60
2023-02-02T09:59:54.387Z,99249.00
2023-02-02T10:05:02.991Z,99246.20
2023-02-02T10:10:11.270Z,99254.40
2023-02-02T10:15:24.586Z,99263.00
2023-02-02T10:20:40.519Z,99268.80
2023-02-02T10:25:44.324Z,99276.80
2023-02-02T10:30:52.187Z,99283.40
2023-02-02T10:36:03.915Z,99282.20
2023-02-02T10:41:14.526Z,99290.20
2023-02-02T10:46:21.405Z,99293.60
2023-02-02T10:51:28.861Z,99304.20
2023-02-02T10:56:36.971Z,99316.80
2023-02-02T11:01:36.611Z,99328.80
2023-02-02T11:06:52.245Z,99337.20
2023-02-02T11:12:01.308Z,99332.80
2023-02-02T11:17:19.393Z,99341.00
2023-02-02T11:22:35.046Z,99358.40
2023-02-02T11:27:41.402Z,99361.20
2023-02-02T11:32:41.841Z,99363.20
2023-02-02T11:37:53.358Z,99370.80
2023-02-02T11:42:55.602Z,99371.80
2023-02-02T11:47:55.227Z,99383.00
2023-02-02T11:52:55.417Z,99386.40
2023-02-02T11:58:48.236Z,99388.20
2023-02-02T12:03:53.431Z,99397.40
2023-02-02T12:08:55.021Z,99405.80
2023-02-02T12:14:12.943Z,99421.40
2023-02-02T12:20:07.945Z,99422.80
2023-02-02T12:25:31.231Z,99430.60
2023-02-02T12:30:46.387Z,99434.40
2023-02-02T12:36:11.850Z,99447.40
2023-02-02T12:41:38.160Z,99458.00
2023-02-02T12:47:01.257Z,99466.40
2023-02-02T12:52:27.320Z,99477.80
2023-02-02T12:57:44.614Z,99483.40
2023-02-02T13:03:05.298Z,99497.20
2023-02-02T13:08:10.978Z,99515.80
2023-02-02T13:13:18.408Z,99508.60
2023-02-02T13:18:26.539Z,99532.20
2023-02-02T13:23:33.724Z,99545.40
2023-02-02T13:28:48.033Z,99567.80
2023-02-02T13:34:02.396Z,99577.40
2023-02-02T13:39:13.892Z,99577.40
2023-02-02T13:44:23.107Z,99596.80
2023-02-02T13:49:28.006Z,99608.80
2023-02-02T13:55:17.283Z,99618.60
2023-02-02T14:00:24.993Z,99631.60
2023-02-02T14:05:31.770Z,99636.80
2023-02-02T14:10:36.024Z,99646.20
2023-02-02T14:15:45.663Z,99655.60
2023-02-02T14:20:51.389Z,99667.60
2023-02-02T14:26:08.418Z,99674.60
2023-02-02T14:31:56.539Z,99684.80
2023-02-02T14:37:41.010Z,99699.20
2023-02-02T14:43:15.789Z,99712.00
2023-02-02T14:48:23.165Z,99717.60
2023-02-02T14:53:33.976Z,99734.20
2023-02-02T14:58:38.672Z,99745.60
2023-02-02T15:03:59.044Z,99760.60
2023-02-02T15:09:36.915Z,99774.40
2023-02-02T15:14:44.182Z,99784.40
2023-02-02T15:19:50.257Z,99803.00
2023-02-02T15:24:51.437Z,99824.60
2023-02-02T15:29:57.129Z,99839.60
2023-02-02T15:35:04.001Z,99849.80
2023-02-02T15:40:10.150Z,99871.40
2023-02-02T15:45:34.676Z,99871.20
2023-02-02T15:50:34.804Z,99882.40
2023-02-02T15:55:39.305Z,99891.80
2023-02-02T16:00:43.863Z,99906.40
2023-02-02T16:05:53.062Z,99928.20
2023-02-02T16:11:52.119Z,99941.40
2023-02-02T16:17:24.018Z,99962.20
2023-02-02T16:22:30.977Z,99974.20
2023-02-02T16:27:34.368Z,99980.00
2023-02-02T16:32:42.296Z,99994.20
2023-02-02T16:37:42.082Z,99998.60
2023-02-02T16:42:41.967Z,100010.40
2023-02-02T16:47:43.014Z,100025.80
2023-02-02T16:52:56.727Z,100036.00
2023-02-02T16:57:57.637Z,100044.80
2023-02-02T17:03:04.667Z,100059.20
2023-02-02T17:08:08.653Z,100079.60
2023-02-02T17:13:41.371Z,100085.40
2023-02-02T17:18:41.069Z,100087.60
2023-02-02T17:23:41.898Z,100103.00
2023-02-02T17:28:43.899Z,100114.40
2023-02-02T17:33:49.684Z,100120.40
2023-02-02T17:38:51.850Z,100133.60
2023-02-02T17:43:51.608Z,100145.60
2023-02-02T17:48:51.576Z,100156.60
2023-02-02T17:53:55.703Z,100164.40
2023-02-02T17:58:54.440Z,100173.20
2023-02-02T18:03:56.142Z,100186.60
2023-02-02T18:08:55.607Z,100193.80
2023-02-02T18:13:54.797Z,100207.20
2023-02-02T18:18:57.631Z,100217.80
2023-02-02T18:23:59.093Z,100228.40
2023-02-02T18:29:00.691Z,100246.00
2023-02-02T18:34:02.378Z,100252.00
2023-02-02T18:39:04.166Z,100256.20
2023-02-02T18:44:08.840Z,100263.60
2023-02-02T18:49:08.793Z,100264.00
2023-02-02T18:54:10.872Z,100276.00
2023-02-02T18:59:14.908Z,100275.40
2023-02-02T19:04:13.943Z,100292.20
2023-02-02T19:09:19.249Z,100309.00
2023-02-02T19:14:37.103Z,100319.20
2023-02-02T19:19:40.195Z,100334.20
2023-02-02T19:24:44.618Z,100352.80
2023-02-02T19:29:45.587Z,100357.20
2023-02-02T19:34:45.855Z,100373.00
2023-02-02T19:39:48.267Z,100383.40
2023-02-02T19:44:48.376Z,100388.00
2023-02-02T19:49:49.101Z,100402.00
2023-02-02T19:54:50.585Z,100407.00
2023-02-02T20:00:01.067Z,100422.60
2023-02-02T20:05:19.070Z,100436.60
2023-02-02T20:10:30.366Z,100445.20
2023-02-02T20:15:40.429Z,100454.00
2023-02-02T20:20:45.839Z,100473.00
2023-02-02T20:25:46.038Z,100482.80
2023-02-02T20:30:45.587Z,100489.80
2023-02-02T20:35:45.707Z,100497.20
2023-02-02T20:40:44.647Z,100497.40
2023-02-02T20:45:45.902Z,100517.40
2023-02-02T20:51:02.380Z,100520.40
2023-02-02T20:56:06.287Z,100530.60
2023-02-02T21:01:11.242Z,100530.80
2023-02-02T21:06:13.680Z,100540.80
2023-02-02T21:11:13.091Z,100543.80
2023-02-02T21:16:14.448Z,100559.40
2023-02-02T21:21:14.396Z,100555.60
2023-02-02T21:26:14.007Z,100564.80
2023-02-02T21:31:22.488Z,100573.00
2023-02-02T21:36:44.755Z,100587.20
2023-02-02T21:42:15.772Z,100601.60
2023-02-02T21:47:46.534Z,100607.20
2023-02-02T21:52:49.729Z,100619.80
2023-02-02T21:57:51.661Z,100619.20
2023-02-02T22:02:54.478Z,100623.60
2023-02-02T22:07:58.917Z,100636.60
2023-02-02T22:13:01.055Z,100646.60
2023-02-02T22:18:04.504Z,100654.60
2023-02-02T22:23:07.219Z,100650.60
2023-02-02T22:28:23.393Z,100654.80
2023-02-02T22:33:26.462Z,100668.40
2023-02-02T22:38:31.178Z,100674.40
2023-02-02T22:43:45.598Z,100678.40
2023-02-02T22:49:08.905Z,100675.80
2023-02-02T22:54:09.466Z,100686.20
2023-02-02T22:59:10.612Z,100693.80
2023-02-02T23:04:09.725Z,100705.20
2023-02-02T23:09:09.481Z,100711.80
2023-02-02T23:14:14.324Z,100724.00
2023-02-02T23:19:16.568Z,100733.60
2023-02-02T23:24:16.198Z,100739.40
2023-02-02T23:29:16.141Z,100748.40
2023-02-02T23:34:15.532Z,100754.40
2023-02-02T23:39:16.487Z,100759.00
2023-02-02T23:44:17.505Z,100756.80
2023-02-02T23:49:17.105Z,100761.20
2023-02-02T23:54:17.769Z,100770.80
2023-02-02T23:59:18.373Z,100768.80
